Time;durP1;ratioP1;P1;durP2;ratioP2;P2;SDS_P1;SDS_P2;PMS_P1;PMS_P2;Temp;Humidity;BMP_temperature;BMP_pressure;BME280_temperature;BME280_humidity;BME280_pressure;Samples;Min_cycle;Max_cycle;Signal;HPM_P1;HPM_P2
2021/12/23 00:01:14;;;;;;;2.78;2.58;;;;;;;;;;7328771;19;162399;-14
2021/12/23 00:03:45;;;;;;;3.22;2.40;;;;;;;;;;7328903;19;153977;-15
2021/12/23 00:06:17;;;;;;;2.75;2.40;;;;;;;;;;7325974;19;153542;-14
2021/12/23 00:08:48;;;;;;;2.55;2.22;;;;;;;;;;7332193;19;161891;-14
2021/12/23 00:11:21;;;;;;;2.60;2.40;;;;;;;;;;7328300;19;162418;-15
2021/12/23 00:14:03;;;;;;;2.42;2.22;;;;;;;;;;7328491;19;153992;-14
2021/12/23 00:16:47;;;;;;;2.97;2.67;;;;;;;;;;7331610;19;153585;-15
2021/12/23 00:19:36;;;;;;;2.40;2.20;;;;;;;;;;7335313;19;161795;-14
2021/12/23 00:24:56;;;;;;;2.63;2.42;;;;;;;;;;7334741;19;153986;-16
2021/12/23 00:27:27;;;;;;;2.85;2.55;;;;;;;;;;7337697;19;153508;-14
2021/12/23 00:30:01;;;;;;;2.60;2.30;;;;;;;;;;7337019;19;161853;-15
2021/12/23 00:32:32;;;;;;;2.10;2.00;;;;;;;;;;7334555;19;162141;-15
2021/12/23 00:35:04;;;;;;;2.85;2.40;;;;;;;;;;7335424;19;154009;-15
2021/12/23 00:37:41;;;;;;;2.33;2.13;;;;;;;;;;7334882;19;153573;-16
2021/12/23 00:40:19;;;;;;;2.22;2.13;;;;;;;;;;7333244;19;162008;-15
2021/12/23 00:42:50;;;;;;;2.58;2.30;;;;;;;;;;7334339;19;162419;-15
2021/12/23 00:45:24;;;;;;;2.42;2.00;;;;;;;;;;7332624;19;154021;-14
2021/12/23 00:47:56;;;;;;;2.40;2.20;;;;;;;;;;7334634;19;153560;-15
2021/12/23 00:50:27;;;;;;;2.47;2.28;;;;;;;;;;7334295;19;162177;-15
2021/12/23 00:53:00;;;;;;;2.17;1.98;;;;;;;;;;7334023;19;162442;-15
2021/12/23 00:55:31;;;;;;;;;;;;;;;;;;7335110;19;154049;-16
2021/12/23 00:58:02;;;;;;;2.15;2.05;;;;;;;;;;7334476;19;153604;-15
2021/12/23 01:00:37;;;;;;;2.25;2.05;;;;;;;;;;7333126;19;161833;-15
2021/12/23 01:03:09;;;;;;;2.10;1.88;;;;;;;;;;7336532;19;162387;-15
2021/12/23 01:05:41;;;;;;;1.67;1.52;;;;;;;;;;7335679;19;154210;-15
2021/12/23 01:08:13;;;;;;;2.13;1.85;;;;;;;;;;7334122;19;153489;-15
2021/12/23 01:10:44;;;;;;;1.70;1.60;;;;;;;;;;7333532;19;161800;-15
2021/12/23 01:13:18;;;;;;;1.73;1.63;;;;;;;;;;7335608;19;162679;-14
2021/12/23 01:16:03;;;;;;;1.83;1.73;;;;;;;;;;7335966;19;153967;-15
2021/12/23 01:18:41;;;;;;;1.70;1.60;;;;;;;;;;7334996;19;154237;-15
2021/12/23 01:21:19;;;;;;;1.70;1.60;;;;;;;;;;7335596;19;161817;-15
2021/12/23 01:23:56;;;;;;;2.22;1.92;;;;;;;;;;7336117;19;162347;-15
2021/12/23 01:26:27;;;;;;;1.60;1.60;;;;;;;;;;7335090;19;153956;-16
2021/12/23 07:44:22;;;;;;;11.18;7.72;;;;;;;;;;7369235;19;132472;-15
2021/12/23 07:46:54;;;;;;;12.52;9.13;;;;;;;;;;7363093;19;153640;-14
2021/12/23 07:49:28;;;;;;;12.07;8.55;;;;;;;;;;7364445;19;161976;-14
2021/12/23 07:52:01;;;;;;;13.93;8.65;;;;;;;;;;7363924;19;162403;-14
2021/12/23 07:54:32;;;;;;;;;;;;;;;;;;7363970;19;153951;-15
2021/12/23 07:57:04;;;;;;;12.20;7.70;;;;;;;;;;7364890;19;153572;-15
2021/12/23 07:59:38;;;;;;;15.55;7.82;;;;;;;;;;7364032;19;162103;-15
2021/12/23 08:02:10;;;;;;;11.50;8.13;;;;;;;;;;7364136;19;162307;-14
2021/12/23 08:04:41;;;;;;;9.85;7.80;;;;;;;;;;7364078;19;154216;-14
2021/12/23 08:07:12;;;;;;;11.07;8.10;;;;;;;;;;7364130;19;153541;-14
2021/12/23 08:09:44;;;;;;;8.07;6.90;;;;;;;;;;7363785;19;161829;-13
2021/12/23 08:12:15;;;;;;;9.80;7.10;;;;;;;;;;7363327;19;162486;-14
2021/12/23 08:14:49;;;;;;;10.82;7.30;;;;;;;;;;7364237;19;153919;-14
2021/12/23 08:17:36;;;;;;;9.05;6.75;;;;;;;;;;7364114;19;153550;-13
2021/12/23 08:20:10;;;;;;;12.20;6.97;;;;;;;;;;7363505;19;161808;-14
2021/12/23 08:22:41;;;;;;;9.55;7.32;;;;;;;;;;7362789;19;162888;-13
2021/12/23 08:25:13;;;;;;;10.38;6.63;;;;;;;;;;7363942;19;154059;-14
2021/12/23 08:27:46;;;;;;;8.57;6.93;;;;;;;;;;7363772;19;153460;-14
2021/12/23 08:30:21;;;;;;;7.68;6.22;;;;;;;;;;7363527;19;161893;-14
2021/12/23 08:32:52;;;;;;;7.78;6.47;;;;;;;;;;7362300;19;162469;-13
2021/12/23 08:35:24;;;;;;;6.68;5.95;;;;;;;;;;7363598;19;153985;-14
2021/12/23 08:37:55;;;;;;;9.48;6.45;;;;;;;;;;7363490;19;153572;-19
2021/12/23 08:40:28;;;;;;;8.73;6.55;;;;;;;;;;7363041;19;162344;-14
2021/12/23 08:43:02;;;;;;;7.78;6.18;;;;;;;;;;7359800;19;162602;-14
2021/12/23 08:45:37;;;;;;;;;;;;;;;;;;7334372;19;153945;-14
2021/12/23 08:48:09;;;;;;;8.88;6.28;;;;;;;;;;7334576;19;153746;-14
2021/12/23 08:50:40;;;;;;;8.45;5.68;;;;;;;;;;7333911;19;161919;-13
2021/12/23 08:53:11;;;;;;;7.53;5.93;;;;;;;;;;7331327;19;162625;-13
2021/12/23 08:55:42;;;;;;;6.97;5.78;;;;;;;;;;7333988;19;154224;-14
2021/12/23 08:58:14;;;;;;;7.72;6.13;;;;;;;;;;7333012;19;153646;-14
2021/12/23 09:00:47;;;;;;;7.53;5.95;;;;;;;;;;7333518;19;161769;-14
2021/12/23 09:03:19;;;;;;;8.93;6.20;;;;;;;;;;7333510;19;162526;-14
2021/12/23 09:05:50;;;;;;;8.07;5.68;;;;;;;;;;7333972;19;153900;-15
2021/12/23 09:08:21;;;;;;;8.57;5.78;;;;;;;;;;7332613;19;153489;-14
2021/12/23 09:10:55;;;;;;;6.90;6.10;;;;;;;;;;7333230;19;162021;-13
2021/12/23 09:13:28;;;;;;;8.13;5.43;;;;;;;;;;7331718;19;162618;-15
2021/12/23 09:16:02;;;;;;;5.57;5.05;;;;;;;;;;7333815;19;153713;-15
2021/12/23 09:18:33;;;;;;;5.82;5.05;;;;;;;;;;7333637;19;153668;-15
2021/12/23 09:21:05;;;;;;;6.35;5.63;;;;;;;;;;7333319;19;161986;-15
2021/12/23 09:23:45;;;;;;;5.80;4.72;;;;;;;;;;7333295;19;162674;-15
2021/12/23 09:26:17;;;;;;;6.55;5.32;;;;;;;;;;7333649;19;153939;-15
2021/12/23 09:28:59;;;;;;;6.00;4.88;;;;;;;;;;7333472;19;153485;-15
2021/12/23 09:34:17;;;;;;;6.20;4.45;;;;;;;;;;7331209;19;162399;-16
2021/12/23 09:36:48;;;;;;;6.20;5.03;;;;;;;;;;7333430;19;153979;-15
2021/12/23 09:39:21;;;;;;;6.47;5.05;;;;;;;;;;7333095;19;153488;-15
2021/12/23 09:41:52;;;;;;;5.53;4.73;;;;;;;;;;7332468;19;161698;-15
2021/12/23 09:44:23;;;;;;;5.82;4.97;;;;;;;;;;7332602;19;162750;-15
2021/12/23 09:47:02;;;;;;;6.10;5.15;;;;;;;;;;7332921;19;153966;-16
2021/12/23 09:49:34;;;;;;;5.90;4.60;;;;;;;;;;7332759;19;153632;-15
2021/12/23 09:52:08;;;;;;;6.32;4.63;;;;;;;;;;7332434;19;162078;-15
2021/12/23 09:54:44;;;;;;;5.85;4.68;;;;;;;;;;7330215;19;162618;-15
2021/12/23 09:57:16;;;;;;;5.28;4.55;;;;;;;;;;7331017;19;153978;-15
2021/12/23 09:59:47;;;;;;;5.45;4.65;;;;;;;;;;7331511;19;153486;-15
2021/12/23 10:02:21;;;;;;;6.05;4.90;;;;;;;;;;7330804;19;161776;-13
2021/12/23 10:04:52;;;;;;;5.20;4.45;;;;;;;;;;7331870;19;163382;-15
2021/12/23 10:07:23;;;;;;;4.97;4.18;;;;;;;;;;7332504;19;153972;-19
2021/12/23 10:10:01;;;;;;;6.68;4.93;;;;;;;;;;7332410;19;153515;-16
2021/12/23 10:13:06;;;;;;;4.45;4.05;;;;;;;;;;7332033;19;161882;-15
2021/12/23 10:38:14;;;;;;;5.05;3.90;;;;;;;;;;7331041;19;162185;-16
2021/12/23 10:40:50;;;;;;;5.45;3.72;;;;;;;;;;7331254;19;154053;-15
2021/12/23 10:43:28;;;;;;;4.50;3.83;;;;;;;;;;7329102;19;153519;-16
2021/12/23 10:46:03;;;;;;;4.78;3.83;;;;;;;;;;7330797;19;162175;-14
2021/12/23 10:48:36;;;;;;;4.60;4.03;;;;;;;;;;7330630;19;162376;-15
2021/12/23 10:51:16;;;;;;;4.63;3.55;;;;;;;;;;7331082;19;153954;-14
2021/12/23 10:54:16;;;;;;;4.43;3.47;;;;;;;;;;7330322;19;153513;-15
2021/12/23 10:59:30;;;;;;;3.95;3.60;;;;;;;;;;7330348;19;162407;-14
2021/12/23 11:02:15;;;;;;;4.10;3.38;;;;;;;;;;7330528;19;154016;-14
2021/12/23 11:05:03;;;;;;;3.65;3.35;;;;;;;;;;7330440;19;153726;-14
2021/12/23 11:07:56;;;;;;;4.10;3.70;;;;;;;;;;7329200;19;161920;-14
2021/12/23 11:10:57;;;;;;;4.20;3.78;;;;;;;;;;7329929;19;162767;-16
2021/12/23 11:27:37;;;;;;;5.55;3.42;;;;;;;;;;7329872;19;153455;-14
2021/12/23 11:36:06;;;;;;;3.67;3.38;;;;;;;;;;7325118;19;154000;-14
2021/12/23 11:38:59;;;;;;;3.65;3.35;;;;;;;;;;7329365;19;153547;-15
2021/12/23 11:41:40;;;;;;;3.50;3.20;;;;;;;;;;7328096;19;161851;-14
2021/12/23 11:44:11;;;;;;;3.03;2.83;;;;;;;;;;7326242;19;162535;-15
2021/12/23 11:46:48;;;;;;;3.88;3.58;;;;;;;;;;7329227;19;153943;-14
2021/12/23 11:49:19;;;;;;;3.05;2.85;;;;;;;;;;7329456;19;153531;-14
2021/12/23 11:51:55;;;;;;;3.25;2.95;;;;;;;;;;7328836;19;161953;-15
2021/12/23 11:54:31;;;;;;;3.60;3.28;;;;;;;;;;7328261;19;162531;-15
2021/12/23 11:57:08;;;;;;;3.70;2.90;;;;;;;;;;7328899;19;154330;-14
2021/12/23 11:59:45;;;;;;;3.45;3.15;;;;;;;;;;7328828;19;153575;-15
2021/12/23 12:02:19;;;;;;;3.65;3.10;;;;;;;;;;7328501;19;161729;-14
2021/12/23 12:05:00;;;;;;;3.00;2.70;;;;;;;;;;7328203;19;162645;-14
2021/12/23 12:07:31;;;;;;;3.80;3.13;;;;;;;;;;7328856;19;154283;-15
2021/12/23 12:10:08;;;;;;;3.60;3.30;;;;;;;;;;7328794;19;153593;-15
2021/12/23 12:13:00;;;;;;;3.42;2.97;;;;;;;;;;7328440;19;161864;-15
2021/12/23 12:15:47;;;;;;;3.25;3.00;;;;;;;;;;7325371;19;162425;-14
2021/12/23 12:18:22;;;;;;;3.17;2.92;;;;;;;;;;7328287;19;153951;-14
2021/12/23 12:20:59;;;;;;;3.70;2.63;;;;;;;;;;7335323;19;153513;-15
2021/12/23 12:23:34;;;;;;;3.25;2.92;;;;;;;;;;7334566;19;161926;-15
2021/12/23 12:26:08;;;;;;;3.67;2.97;;;;;;;;;;7334500;19;162330;-14
2021/12/23 12:28:45;;;;;;;2.90;2.70;;;;;;;;;;7335010;19;154075;-14
2021/12/23 12:31:21;;;;;;;2.92;2.72;;;;;;;;;;7334877;19;153500;-15
2021/12/23 12:34:07;;;;;;;3.47;3.10;;;;;;;;;;7333512;19;161673;-14
2021/12/23 12:36:43;;;;;;;4.70;3.03;;;;;;;;;;7332181;19;163353;-15
2021/12/23 12:39:27;;;;;;;4.28;2.85;;;;;;;;;;7334616;19;154042;-14
2021/12/23 12:42:08;;;;;;;3.08;2.70;;;;;;;;;;7334133;19;153535;-14
2021/12/23 12:45:00;;;;;;;2.90;2.70;;;;;;;;;;7334185;19;161958;-14
2021/12/23 12:47:37;;;;;;;2.75;2.55;;;;;;;;;;7334144;19;162558;-15
2021/12/23 12:50:15;;;;;;;2.60;2.40;;;;;;;;;;7334209;19;154401;-15
2021/12/23 12:52:49;;;;;;;2.58;2.28;;;;;;;;;;7334267;19;153548;-15
2021/12/23 12:55:26;;;;;;;2.55;2.38;;;;;;;;;;7333028;19;161944;-13
2021/12/23 12:58:01;;;;;;;3.10;2.80;;;;;;;;;;7333783;19;162437;-14
2021/12/23 13:00:38;;;;;;;2.60;2.40;;;;;;;;;;7334141;19;153967;-14
2021/12/23 13:03:12;;;;;;;2.63;2.42;;;;;;;;;;7334291;19;153456;-14
2021/12/23 13:05:45;;;;;;;2.35;2.15;;;;;;;;;;7333345;19;161813;-14
2021/12/23 13:08:28;;;;;;;2.45;2.25;;;;;;;;;;7333634;19;164105;-14
2021/12/23 13:11:22;;;;;;;2.40;2.20;;;;;;;;;;7335825;19;154015;-14
2021/12/23 13:14:24;;;;;;;2.58;2.38;;;;;;;;;;7335052;19;153665;-14
2021/12/23 13:17:17;;;;;;;3.45;2.38;;;;;;;;;;7327422;19;162118;-14
2021/12/23 13:19:52;;;;;;;3.45;2.60;;;;;;;;;;7333283;19;162435;-14
2021/12/23 13:22:38;;;;;;;4.00;2.38;;;;;;;;;;7333572;19;153959;-14
2021/12/23 13:25:11;;;;;;;5.68;2.60;;;;;;;;;;7332219;19;153693;-14
2021/12/23 13:27:43;;;;;;;4.90;2.70;;;;;;;;;;7333204;19;161818;-14
2021/12/23 13:30:15;;;;;;;3.03;2.72;;;;;;;;;;7332556;19;162872;-15
2021/12/23 13:32:59;;;;;;;3.17;2.10;;;;;;;;;;7333233;19;153959;-15
2021/12/23 13:35:33;;;;;;;3.35;2.17;;;;;;;;;;7332735;19;153533;-14
2021/12/23 13:38:04;;;;;;;3.38;2.25;;;;;;;;;;7332648;19;162086;-14
2021/12/23 13:40:38;;;;;;;3.20;2.28;;;;;;;;;;7332825;19;162402;-14
2021/12/23 13:43:09;;;;;;;2.80;2.53;;;;;;;;;;7331379;19;154108;-15
2021/12/23 13:45:44;;;;;;;2.55;2.33;;;;;;;;;;7331759;19;153865;-14
2021/12/23 13:48:18;;;;;;;3.58;2.40;;;;;;;;;;7332212;19;161908;-14
2021/12/23 13:50:52;;;;;;;2.35;2.15;;;;;;;;;;7331216;19;162615;-14
2021/12/23 13:53:24;;;;;;;3.13;2.00;;;;;;;;;;7332607;19;154005;-14
2021/12/23 13:55:55;;;;;;;2.65;2.28;;;;;;;;;;7331835;19;153637;-14
2021/12/23 13:58:26;;;;;;;2.25;2.05;;;;;;;;;;7330851;19;162055;-14
2021/12/23 14:01:01;;;;;;;2.30;2.10;;;;;;;;;;7332126;19;162401;-14
2021/12/23 14:03:34;;;;;;;3.10;2.20;;;;;;;;;;7332436;19;153967;-14
2021/12/23 14:06:06;;;;;;;2.33;2.13;;;;;;;;;;7332252;19;153522;-14
2021/12/23 14:08:44;;;;;;;1.98;1.88;;;;;;;;;;7331829;19;161831;-14
2021/12/23 14:11:15;;;;;;;2.10;2.00;;;;;;;;;;7331787;19;162638;-14
2021/12/23 14:13:47;;;;;;;1.95;1.85;;;;;;;;;;7332157;19;154013;-14
2021/12/23 14:16:23;;;;;;;2.22;2.03;;;;;;;;;;7329844;19;153696;-14
2021/12/23 14:19:21;;;;;;;3.00;1.92;;;;;;;;;;7330306;19;161917;-14
2021/12/23 14:24:35;;;;;;;1.60;1.50;;;;;;;;;;7331779;19;153948;-14
2021/12/23 14:27:08;;;;;;;1.88;1.77;;;;;;;;;;7331754;19;153530;-15
2021/12/23 14:29:40;;;;;;;2.20;2.00;;;;;;;;;;7331402;19;161982;-15
2021/12/23 14:32:16;;;;;;;2.03;1.90;;;;;;;;;;7331181;19;162338;-15
2021/12/23 14:34:50;;;;;;;1.83;1.70;;;;;;;;;;7331479;19;154006;-15
2021/12/23 14:37:21;;;;;;;2.10;1.77;;;;;;;;;;7329696;19;153788;-14
2021/12/23 14:39:58;;;;;;;1.60;1.50;;;;;;;;;;7330834;19;161836;-16
2021/12/23 14:42:31;;;;;;;1.92;1.80;;;;;;;;;;7328213;19;162339;-15
2021/12/23 14:45:03;;;;;;;1.70;1.60;;;;;;;;;;7331173;19;153958;-14
2021/12/23 14:47:34;;;;;;;1.85;1.75;;;;;;;;;;7331254;19;153474;-14
2021/12/23 14:50:17;;;;;;;1.70;1.52;;;;;;;;;;7330740;19;161838;-15
2021/12/23 14:52:53;;;;;;;2.08;1.80;;;;;;;;;;7330690;19;162366;-15
2021/12/23 14:55:32;;;;;;;2.10;1.83;;;;;;;;;;7331001;19;154056;-15
2021/12/23 14:58:05;;;;;;;2.22;1.85;;;;;;;;;;7328388;19;153520;-14
2021/12/23 15:00:41;;;;;;;1.98;1.88;;;;;;;;;;7329120;19;162157;-14
2021/12/23 15:03:25;;;;;;;1.83;1.67;;;;;;;;;;7330208;19;163997;-14
2021/12/23 15:06:08;;;;;;;1.88;1.65;;;;;;;;;;7330418;19;153989;-15
2021/12/23 15:08:47;;;;;;;1.33;1.23;;;;;;;;;;7330363;19;153676;-14
2021/12/23 15:11:20;;;;;;;1.50;1.40;;;;;;;;;;7330147;19;161645;-14
2021/12/23 15:13:51;;;;;;;;;;;;;;;;;;7330638;19;162165;-14
2021/12/23 15:16:26;;;;;;;1.70;1.60;;;;;;;;;;7330408;19;154235;-14
2021/12/23 15:19:14;;;;;;;1.67;1.58;;;;;;;;;;7330051;19;153567;-14
2021/12/23 15:21:52;;;;;;;1.73;1.55;;;;;;;;;;7329870;19;161867;-14
2021/12/23 15:24:26;;;;;;;1.67;1.58;;;;;;;;;;7329787;19;162517;-14
2021/12/23 15:27:22;;;;;;;;;;;;;;;;;;7330497;19;154463;-14
2021/12/23 15:30:00;;;;;;;1.58;1.48;;;;;;;;;;7330031;19;153339;-14
2021/12/23 15:32:36;;;;;;;1.90;1.70;;;;;;;;;;7329424;19;161592;-14
2021/12/23 15:35:13;;;;;;;2.22;1.70;;;;;;;;;;7329347;19;162350;-14
2021/12/23 15:37:50;;;;;;;1.73;1.63;;;;;;;;;;7328273;19;154262;-14
2021/12/23 15:40:24;;;;;;;2.40;1.73;;;;;;;;;;7329580;19;153487;-14
2021/12/23 15:42:58;;;;;;;1.73;1.63;;;;;;;;;;7327619;19;161827;-14
2021/12/23 15:45:31;;;;;;;1.23;1.23;;;;;;;;;;7328878;19;162394;-22
2021/12/23 15:48:02;;;;;;;1.45;1.35;;;;;;;;;;7329103;19;154154;-16
2021/12/23 15:50:36;;;;;;;1.48;1.38;;;;;;;;;;7327885;19;153617;-15
2021/12/23 15:53:10;;;;;;;1.38;1.30;;;;;;;;;;7328634;19;161792;-14
2021/12/23 15:55:42;;;;;;;1.60;1.50;;;;;;;;;;7335446;19;162388;-14
2021/12/23 15:58:13;;;;;;;1.20;1.20;;;;;;;;;;7334457;19;154003;-14
2021/12/23 16:00:44;;;;;;;1.40;1.30;;;;;;;;;;7335483;19;153287;-14
2021/12/23 16:03:15;;;;;;;1.48;1.38;;;;;;;;;;7335128;19;161972;-14
2021/12/23 16:08:33;;;;;;;1.50;1.40;;;;;;;;;;7335767;19;154237;-14
2021/12/23 16:11:05;;;;;;;1.42;1.30;;;;;;;;;;7335554;19;153508;-14
2021/12/23 16:13:37;;;;;;;1.25;1.23;;;;;;;;;;7335013;19;161749;-14
2021/12/23 16:16:09;;;;;;;1.73;1.58;;;;;;;;;;7335051;19;162522;-14
2021/12/23 16:18:40;;;;;;;2.10;1.38;;;;;;;;;;7333686;19;153925;-15
2021/12/23 16:21:12;;;;;;;1.50;1.40;;;;;;;;;;7335343;19;153644;-15
2021/12/23 16:23:45;;;;;;;1.65;1.55;;;;;;;;;;7334660;19;162010;-15
2021/12/23 16:26:17;;;;;;;1.23;1.10;;;;;;;;;;7334666;19;162649;-14
2021/12/23 16:28:51;;;;;;;1.20;1.17;;;;;;;;;;7335019;19;154004;-15
2021/12/23 16:31:26;;;;;;;1.95;1.45;;;;;;;;;;7334694;19;153526;-14
2021/12/23 16:33:58;;;;;;;1.50;1.40;;;;;;;;;;7332990;19;161960;-14
2021/12/23 16:36:30;;;;;;;1.80;1.47;;;;;;;;;;7334560;19;162663;-14
2021/12/23 16:39:04;;;;;;;1.50;1.40;;;;;;;;;;7333037;19;154008;-15
2021/12/23 16:41:36;;;;;;;1.25;1.20;;;;;;;;;;7334622;19;153381;-14
2021/12/23 16:44:08;;;;;;;1.40;1.30;;;;;;;;;;7331248;19;161760;-15
2021/12/23 16:46:42;;;;;;;1.02;1.02;;;;;;;;;;7334009;19;162373;-15
2021/12/23 16:49:16;;;;;;;1.13;1.10;;;;;;;;;;7334319;19;154104;-14
2021/12/23 16:51:51;;;;;;;1.23;1.13;;;;;;;;;;7334273;19;153544;-14
2021/12/23 16:54:24;;;;;;;1.08;1.08;;;;;;;;;;7333859;19;161862;-15
2021/12/23 16:59:39;;;;;;;1.45;1.35;;;;;;;;;;7332156;19;154251;-14
2021/12/23 17:02:11;;;;;;;1.33;1.23;;;;;;;;;;7334113;19;153531;-14
2021/12/23 17:04:43;;;;;;;1.90;1.45;;;;;;;;;;7332755;19;161786;-14
2021/12/23 17:07:15;;;;;;;1.40;1.30;;;;;;;;;;7333383;19;162464;-14
2021/12/23 17:09:49;;;;;;;1.15;1.15;;;;;;;;;;7333847;19;154084;-15
2021/12/23 17:12:23;;;;;;;1.63;1.30;;;;;;;;;;7332705;19;153459;-15
2021/12/23 17:14:57;;;;;;;1.08;1.00;;;;;;;;;;7333533;19;161835;-15
2021/12/23 17:17:30;;;;;;;;;;;;;;;;;;7334043;19;162522;-18
2021/12/23 17:20:04;;;;;;;1.40;1.20;;;;;;;;;;7331559;19;153857;-14
2021/12/23 17:22:38;;;;;;;1.00;1.00;;;;;;;;;;7333511;19;153485;-14
2021/12/23 17:25:14;;;;;;;1.40;1.30;;;;;;;;;;7333294;19;161993;-14
2021/12/23 17:27:45;;;;;;;1.83;0.90;;;;;;;;;;7333031;19;162377;-14
2021/12/23 17:30:18;;;;;;;1.42;1.30;;;;;;;;;;7331947;19;154111;-15
2021/12/23 17:32:52;;;;;;;1.88;1.10;;;;;;;;;;7333371;19;153534;-14
2021/12/23 17:35:23;;;;;;;0.93;0.90;;;;;;;;;;7332987;19;162346;-14
2021/12/23 17:38:03;;;;;;;1.25;1.25;;;;;;;;;;7331653;19;163154;-14
2021/12/23 17:40:39;;;;;;;1.15;1.13;;;;;;;;;;7333159;19;154039;-13
2021/12/23 17:43:17;;;;;;;1.10;0.98;;;;;;;;;;7331224;19;153493;-14
2021/12/23 17:45:50;;;;;;;1.10;1.00;;;;;;;;;;7332652;19;162016;-14
2021/12/23 17:48:21;;;;;;;;;;;;;;;;;;7332999;19;162462;-13
2021/12/23 17:50:53;;;;;;;2.10;1.15;;;;;;;;;;7332928;19;153879;-14
2021/12/23 17:53:28;;;;;;;1.00;1.00;;;;;;;;;;7332669;19;153421;-14
2021/12/23 17:56:02;;;;;;;1.00;1.00;;;;;;;;;;7332336;19;161774;-14
2021/12/23 17:58:36;;;;;;;1.00;1.00;;;;;;;;;;7331859;19;162341;-14
2021/12/23 18:01:11;;;;;;;1.10;1.05;;;;;;;;;;7332559;19;153969;-14
2021/12/23 18:03:43;;;;;;;1.23;1.00;;;;;;;;;;7332241;19;153754;-13
2021/12/23 18:06:15;;;;;;;1.10;1.10;;;;;;;;;;7331895;19;161743;-14
2021/12/23 18:08:50;;;;;;;1.00;0.90;;;;;;;;;;7331956;19;162456;-15
2021/12/23 18:11:24;;;;;;;1.23;1.23;;;;;;;;;;7332299;19;154013;-14
2021/12/23 18:13:56;;;;;;;1.00;1.00;;;;;;;;;;7332112;19;153778;-15
2021/12/23 18:16:27;;;;;;;1.15;1.10;;;;;;;;;;7328271;19;162109;-15
2021/12/23 18:18:58;;;;;;;1.08;1.08;;;;;;;;;;7331028;19;162343;-15
2021/12/23 18:21:30;;;;;;;1.00;1.00;;;;;;;;;;7331901;19;154268;-15
2021/12/23 18:24:02;;;;;;;1.40;1.30;;;;;;;;;;7331842;19;153461;-14
2021/12/23 18:26:36;;;;;;;0.80;0.80;;;;;;;;;;7331203;19;161970;-16
2021/12/23 18:29:08;;;;;;;0.90;0.90;;;;;;;;;;7331329;19;162528;-15
2021/12/23 18:31:41;;;;;;;1.03;1.00;;;;;;;;;;7331694;19;154015;-14
2021/12/23 18:34:12;;;;;;;1.00;1.00;;;;;;;;;;7331595;19;153468;-15
2021/12/23 18:36:47;;;;;;;0.90;0.90;;;;;;;;;;7330923;19;162070;-15
2021/12/23 18:39:25;;;;;;;1.02;1.02;;;;;;;;;;7330349;19;162398;-15
2021/12/23 18:42:05;;;;;;;1.38;1.27;;;;;;;;;;7330970;19;154018;-13
2021/12/23 18:44:40;;;;;;;1.10;1.10;;;;;;;;;;7331225;19;153585;-13
2021/12/23 18:47:11;;;;;;;0.95;0.95;;;;;;;;;;7329797;19;162646;-14
2021/12/23 18:49:42;;;;;;;1.35;1.00;;;;;;;;;;7330789;19;162358;-13
2021/12/23 18:52:13;;;;;;;0.98;0.98;;;;;;;;;;7331243;19;153968;-13
2021/12/23 18:54:45;;;;;;;1.02;0.90;;;;;;;;;;7330980;19;153608;-13
2021/12/23 18:57:18;;;;;;;0.80;0.80;;;;;;;;;;7330344;19;161969;-14
2021/12/23 18:59:50;;;;;;;0.90;0.90;;;;;;;;;;7328321;19;162671;-14
2021/12/23 19:02:36;;;;;;;0.90;0.90;;;;;;;;;;7330259;19;153705;-14
2021/12/23 19:05:20;;;;;;;1.02;1.02;;;;;;;;;;7330179;19;153626;-14
2021/12/23 19:07:52;;;;;;;0.73;0.73;;;;;;;;;;7330303;19;161762;-14
2021/12/23 19:10:24;;;;;;;0.80;0.80;;;;;;;;;;7330109;19;162286;-14
2021/12/23 19:12:59;;;;;;;0.90;0.90;;;;;;;;;;7330611;19;154069;-13
2021/12/23 19:15:30;;;;;;;0.98;0.98;;;;;;;;;;7330425;19;153518;-13
2021/12/23 19:18:03;;;;;;;0.70;0.70;;;;;;;;;;7329956;19;161945;-13
2021/12/23 19:20:34;;;;;;;0.88;0.88;;;;;;;;;;7328081;19;162358;-13
2021/12/23 19:23:06;;;;;;;0.80;0.80;;;;;;;;;;7330381;19;154065;-15
2021/12/23 19:25:45;;;;;;;0.95;0.90;;;;;;;;;;7330133;19;153576;-14
2021/12/23 19:28:23;;;;;;;0.80;0.80;;;;;;;;;;7329078;19;161921;-13
2021/12/23 19:30:54;;;;;;;0.93;0.90;;;;;;;;;;7329767;19;162339;-15
2021/12/23 19:33:29;;;;;;;0.85;0.85;;;;;;;;;;7328822;19;154153;-14
2021/12/23 19:36:03;;;;;;;0.70;0.70;;;;;;;;;;7329867;19;153674;-14
2021/12/23 19:38:38;;;;;;;0.70;0.70;;;;;;;;;;7329211;19;161871;-15
2021/12/23 19:41:10;;;;;;;0.80;0.80;;;;;;;;;;7327369;19;162475;-14
2021/12/23 19:43:43;;;;;;;0.63;0.63;;;;;;;;;;7327112;19;154003;-12
2021/12/23 19:46:17;;;;;;;0.68;0.68;;;;;;;;;;7329557;19;153609;-14
2021/12/23 19:48:49;;;;;;;0.70;0.70;;;;;;;;;;7329321;19;162127;-14
2021/12/23 19:51:22;;;;;;;0.80;0.80;;;;;;;;;;7328956;19;163022;-18
2021/12/23 19:53:54;;;;;;;0.88;0.88;;;;;;;;;;7329408;19;154170;-14
2021/12/23 19:56:26;;;;;;;0.88;0.80;;;;;;;;;;7329115;19;153630;-14
2021/12/23 19:59:00;;;;;;;0.73;0.73;;;;;;;;;;7328883;19;161749;-14
2021/12/23 20:01:31;;;;;;;0.80;0.80;;;;;;;;;;7325575;19;162630;-14
2021/12/23 20:04:04;;;;;;;0.80;0.80;;;;;;;;;;7329099;19;154035;-13
2021/12/23 20:06:36;;;;;;;0.83;0.83;;;;;;;;;;7329159;19;153520;-15
2021/12/23 20:09:07;;;;;;;0.77;0.77;;;;;;;;;;7328839;19;161926;-14
2021/12/23 20:11:38;;;;;;;0.80;0.80;;;;;;;;;;7327493;19;162396;-14
2021/12/23 20:14:12;;;;;;;0.82;0.80;;;;;;;;;;7328992;19;153980;-23
2021/12/23 20:16:44;;;;;;;0.52;0.52;;;;;;;;;;7328946;19;153639;-15
2021/12/23 20:19:15;;;;;;;0.70;0.70;;;;;;;;;;7328459;19;161762;-14
2021/12/23 20:21:46;;;;;;;0.70;0.70;;;;;;;;;;7326441;19;162391;-13
2021/12/23 20:24:18;;;;;;;2.80;1.00;;;;;;;;;;7328811;19;154150;-14
2021/12/23 20:26:49;;;;;;;3.33;0.85;;;;;;;;;;7328230;19;153761;-20
2021/12/23 20:29:24;;;;;;;0.98;0.98;;;;;;;;;;7327902;19;161767;-15
2021/12/23 20:31:57;;;;;;;1.80;1.38;;;;;;;;;;7330282;19;162756;-15
2021/12/23 20:34:28;;;;;;;1.05;0.90;;;;;;;;;;7330284;19;154177;-14
2021/12/23 20:37:00;;;;;;;0.90;0.90;;;;;;;;;;7330461;19;153717;-13
2021/12/23 20:39:31;;;;;;;1.58;1.00;;;;;;;;;;7331637;19;161805;-13
2021/12/23 20:42:03;;;;;;;1.13;1.10;;;;;;;;;;7335988;19;162553;-14
2021/12/23 20:44:37;;;;;;;0.95;0.95;;;;;;;;;;7338164;19;154082;-15
2021/12/23 20:47:08;;;;;;;1.40;1.00;;;;;;;;;;7337987;19;154026;-14
2021/12/23 20:49:39;;;;;;;0.80;0.80;;;;;;;;;;7337084;19;162187;-14
2021/12/23 20:52:11;;;;;;;1.10;1.00;;;;;;;;;;7337869;19;162431;-15
2021/12/23 20:54:49;;;;;;;1.00;1.00;;;;;;;;;;7337825;19;154058;-15
2021/12/23 20:57:22;;;;;;;0.82;0.82;;;;;;;;;;7338446;19;153543;-14
2021/12/23 20:59:55;;;;;;;1.17;1.17;;;;;;;;;;7337321;19;162347;-13
2021/12/23 21:02:30;;;;;;;0.90;0.90;;;;;;;;;;7335222;19;162535;-14
2021/12/23 21:05:01;;;;;;;0.88;0.88;;;;;;;;;;7336303;19;154125;-14
2021/12/23 21:07:32;;;;;;;1.23;1.05;;;;;;;;;;7334490;19;153768;-14
2021/12/23 21:10:03;;;;;;;2.33;1.00;;;;;;;;;;7332878;19;162014;-14
2021/12/23 21:12:36;;;;;;;1.13;1.00;;;;;;;;;;7334178;19;162368;-14
2021/12/23 21:15:12;;;;;;;1.55;1.27;;;;;;;;;;7334342;19;153982;-14
2021/12/23 21:17:43;;;;;;;1.45;1.20;;;;;;;;;;7334211;19;153626;-14
2021/12/23 21:20:14;;;;;;;1.30;1.20;;;;;;;;;;7333773;19;162013;-14
2021/12/23 21:22:46;;;;;;;0.90;0.90;;;;;;;;;;7331383;19;162452;-14
2021/12/23 21:25:17;;;;;;;1.10;1.00;;;;;;;;;;7334075;19;154336;-14
2021/12/23 21:27:48;;;;;;;1.35;1.17;;;;;;;;;;7333777;19;153544;-14
2021/12/23 21:30:22;;;;;;;1.02;1.02;;;;;;;;;;7333517;19;161909;-14
2021/12/23 21:32:53;;;;;;;1.85;1.00;;;;;;;;;;7333540;19;162345;-14
2021/12/23 21:35:26;;;;;;;1.83;1.27;;;;;;;;;;7333995;19;154159;-15
2021/12/23 21:37:57;;;;;;;1.40;1.30;;;;;;;;;;7333719;19;153585;-14
2021/12/23 21:40:29;;;;;;;1.00;1.00;;;;;;;;;;7333041;19;162063;-14
2021/12/23 21:43:03;;;;;;;1.30;1.20;;;;;;;;;;7330522;19;162877;-14
2021/12/23 21:45:37;;;;;;;3.40;1.45;;;;;;;;;;7333581;19;154003;-15
2021/12/23 21:48:08;;;;;;;1.90;1.10;;;;;;;;;;7337013;19;153693;-14
2021/12/23 21:50:39;;;;;;;0.80;0.80;;;;;;;;;;7333029;19;161763;-14
2021/12/23 21:53:14;;;;;;;1.65;1.20;;;;;;;;;;7334649;19;162544;-13
2021/12/23 21:55:50;;;;;;;1.17;1.02;;;;;;;;;;7334492;19;154207;-15
2021/12/23 21:58:23;;;;;;;1.10;1.00;;;;;;;;;;7336737;19;153443;-15
2021/12/23 22:00:57;;;;;;;1.20;1.10;;;;;;;;;;7334195;19;162096;-15
2021/12/23 22:03:31;;;;;;;1.80;1.08;;;;;;;;;;7332914;19;162437;-15
2021/12/23 22:06:02;;;;;;;;;;;;;;;;;;7336555;19;153936;-15
2021/12/23 22:08:33;;;;;;;1.40;1.30;;;;;;;;;;7335671;19;153328;-15
2021/12/23 22:11:06;;;;;;;1.10;1.00;;;;;;;;;;7335385;19;161889;-14
2021/12/23 22:13:38;;;;;;;1.98;1.10;;;;;;;;;;7334237;19;162485;-15
2021/12/23 22:16:17;;;;;;;1.98;1.15;;;;;;;;;;7334761;19;154186;-14
2021/12/23 22:18:48;;;;;;;1.33;1.10;;;;;;;;;;7335730;19;153667;-13
2021/12/23 22:21:20;;;;;;;2.05;1.10;;;;;;;;;;7336084;19;162084;-14
2021/12/23 22:23:51;;;;;;;0.90;0.90;;;;;;;;;;7334249;19;162439;-14
2021/12/23 22:26:23;;;;;;;0.95;0.95;;;;;;;;;;7335346;19;154138;-14
2021/12/23 22:28:54;;;;;;;1.30;1.10;;;;;;;;;;7335549;19;153724;-14